sensor_id;sensor_type;location;lat;lon;timestamp;pressure;altitude;pressure_sealevel;temperature;humidity
5651;BME280;40241;52.684;9.758;2023-02-10T00:02:22;103140.28;;;5.67;57.04
5651;BME280;40241;52.684;9.758;2023-02-10T00:04:47;103139.50;;;5.66;57.58
5651;BME280;40241;52.684;9.758;2023-02-10T00:07:12;103146.91;;;5.66;57.30
5651;BME280;40241;52.684;9.758;2023-02-10T00:09:38;103153.16;;;5.70;57.65
5651;BME280;40241;52.684;9.758;2023-02-10T00:12:03;103151.97;;;5.71;57.37
5651;BME280;40241;52.684;9.758;2023-02-10T00:14:29;103146.50;;;5.74;57.35
5651;BME280;40241;52.684;9.758;2023-02-10T00:16:56;103150.38;;;5.77;57.36
5651;BME280;40241;52.684;9.758;2023-02-10T00:19:23;103151.53;;;5.79;57.76
5651;BME280;40241;52.684;9.758;2023-02-10T00:21:49;103145.28;;;5.79;57.49
5651;BME280;40241;52.684;9.758;2023-02-10T00:24:15;103155.00;;;5.83;57.63
5651;BME280;40241;52.684;9.758;2023-02-10T00:26:40;103146.06;;;5.86;57.28
5651;BME280;40241;52.684;9.758;2023-02-10T00:29:05;103160.47;;;5.83;57.63
5651;BME280;40241;52.684;9.758;2023-02-10T00:31:31;103157.38;;;5.88;57.68
5651;BME280;40241;52.684;9.758;2023-02-10T00:33:56;103156.59;;;5.88;57.73
5651;BME280;40241;52.684;9.758;2023-02-10T00:36:22;103149.94;;;5.92;57.72
5651;BME280;40241;52.684;9.758;2023-02-10T00:38:50;103135.88;;;5.90;57.58
5651;BME280;40241;52.684;9.758;2023-02-10T00:41:17;103138.63;;;5.94;57.89
5651;BME280;40241;52.684;9.758;2023-02-10T00:43:43;103143.69;;;5.92;57.76
5651;BME280;40241;52.684;9.758;2023-02-10T00:46:14;103147.19;;;5.96;57.52
5651;BME280;40241;52.684;9.758;2023-02-10T00:48:39;103136.66;;;5.94;58.00
5651;BME280;40241;52.684;9.758;2023-02-10T00:51:05;103128.81;;;5.96;57.96
5651;BME280;40241;52.684;9.758;2023-02-10T00:53:31;103130.41;;;5.94;58.08
5651;BME280;40241;52.684;9.758;2023-02-10T00:55:57;103149.56;;;5.94;58.04
5651;BME280;40241;52.684;9.758;2023-02-10T00:58:23;103148.34;;;5.95;57.97
5651;BME280;40241;52.684;9.758;2023-02-10T01:00:48;103137.03;;;5.96;57.90
5651;BME280;40241;52.684;9.758;2023-02-10T01:03:14;103128.44;;;5.94;57.92
5651;BME280;40241;52.684;9.758;2023-02-10T01:05:40;103125.34;;;5.92;58.01
5651;BME280;40241;52.684;9.758;2023-02-10T01:08:05;103142.94;;;5.91;58.30
5651;BME280;40241;52.684;9.758;2023-02-10T01:10:34;103133.94;;;5.91;58.58
5651;BME280;40241;52.684;9.758;2023-02-10T01:13:04;103138.22;;;5.95;58.45
5651;BME280;40241;52.684;9.758;2023-02-10T01:15:30;103132.75;;;5.95;58.40
5651;BME280;40241;52.684;9.758;2023-02-10T01:17:55;103140.53;;;5.97;58.25
5651;BME280;40241;52.684;9.758;2023-02-10T01:20:21;103140.53;;;5.97;58.61
5651;BME280;40241;52.684;9.758;2023-02-10T01:22:47;103144.84;;;5.94;58.49
5651;BME280;40241;52.684;9.758;2023-02-10T01:25:12;103143.69;;;5.95;58.63
5651;BME280;40241;52.684;9.758;2023-02-10T01:27:38;103135.47;;;5.95;58.78
5651;BME280;40241;52.684;9.758;2023-02-10T01:30:04;103140.91;;;5.99;58.68
5651;BME280;40241;52.684;9.758;2023-02-10T01:32:29;103134.66;;;5.98;58.68
5651;BME280;40241;52.684;9.758;2023-02-10T01:34:55;103124.94;;;5.97;58.64
5651;BME280;40241;52.684;9.758;2023-02-10T01:37:20;103134.28;;;5.96;58.93
5651;BME280;40241;52.684;9.758;2023-02-10T01:39:46;103128.03;;;5.99;58.64
5651;BME280;40241;52.684;9.758;2023-02-10T01:42:15;103133.50;;;5.99;59.16
5651;BME280;40241;52.684;9.758;2023-02-10T01:47:06;103140.09;;;6.05;58.99
5651;BME280;40241;52.684;9.758;2023-02-10T01:49:35;103133.06;;;6.08;58.89
5651;BME280;40241;52.684;9.758;2023-02-10T01:52:16;103129.53;;;6.11;59.34
5651;BME280;40241;52.684;9.758;2023-02-10T01:54:46;103135.00;;;6.11;59.11
5651;BME280;40241;52.684;9.758;2023-02-10T01:57:12;103130.31;;;6.08;58.86
5651;BME280;40241;52.684;9.758;2023-02-10T01:59:39;103139.72;;;6.07;59.15
5651;BME280;40241;52.684;9.758;2023-02-10T02:02:06;103133.00;;;6.12;59.27
5651;BME280;40241;52.684;9.758;2023-02-10T02:04:54;103128.72;;;6.14;59.62
5651;BME280;40241;52.684;9.758;2023-02-10T02:07:23;103126.34;;;6.16;59.35
5651;BME280;40241;52.684;9.758;2023-02-10T02:09:50;103130.25;;;6.19;59.37
5651;BME280;40241;52.684;9.758;2023-02-10T02:12:18;103122.03;;;6.19;59.30
5651;BME280;40241;52.684;9.758;2023-02-10T02:15:26;103117.41;;;6.16;60.00
5651;BME280;40241;52.684;9.758;2023-02-10T02:32:11;103128.34;;;6.16;60.43
5651;BME280;40241;52.684;9.758;2023-02-10T02:37:32;103121.25;;;6.18;60.48
5651;BME280;40241;52.684;9.758;2023-02-10T02:39:58;103131.81;;;6.20;59.83
5651;BME280;40241;52.684;9.758;2023-02-10T02:42:26;103116.56;;;6.22;59.86
5651;BME280;40241;52.684;9.758;2023-02-10T02:52:42;103115.38;;;6.27;59.89
5651;BME280;40241;52.684;9.758;2023-02-10T02:55:17;103124.31;;;6.27;59.85
5651;BME280;40241;52.684;9.758;2023-02-10T02:58:04;103112.97;;;6.32;60.43
5651;BME280;40241;52.684;9.758;2023-02-10T03:00:35;103115.38;;;6.27;60.00
5651;BME280;40241;52.684;9.758;2023-02-10T03:03:01;103131.75;;;6.27;60.28
5651;BME280;40241;52.684;9.758;2023-02-10T03:05:29;103124.69;;;6.33;59.91
5651;BME280;40241;52.684;9.758;2023-02-10T03:07:56;103129.75;;;6.34;59.74
5651;BME280;40241;52.684;9.758;2023-02-10T03:10:22;103133.66;;;6.33;60.00
5651;BME280;40241;52.684;9.758;2023-02-10T03:12:48;103136.78;;;6.35;60.03
5651;BME280;40241;52.684;9.758;2023-02-10T03:15:13;103129.34;;;6.36;59.98
5651;BME280;40241;52.684;9.758;2023-02-10T03:17:39;103126.97;;;6.38;60.19
5651;BME280;40241;52.684;9.758;2023-02-10T03:20:05;103134.38;;;6.41;59.76
5651;BME280;40241;52.684;9.758;2023-02-10T03:22:31;103119.53;;;6.42;60.05
5651;BME280;40241;52.684;9.758;2023-02-10T03:24:56;103139.06;;;6.40;60.03
5651;BME280;40241;52.684;9.758;2023-02-10T03:27:21;103137.91;;;6.41;59.92
5651;BME280;40241;52.684;9.758;2023-02-10T03:29:47;103132.84;;;6.40;60.15
5651;BME280;40241;52.684;9.758;2023-02-10T03:32:15;103144.94;;;6.39;60.14
5651;BME280;40241;52.684;9.758;2023-02-10T03:34:40;103135.56;;;6.40;60.01
5651;BME280;40241;52.684;9.758;2023-02-10T03:37:05;103139.44;;;6.42;60.19
5651;BME280;40241;52.684;9.758;2023-02-10T03:39:31;103155.09;;;6.42;60.47
5651;BME280;40241;52.684;9.758;2023-02-10T03:41:56;103151.16;;;6.43;60.32
5651;BME280;40241;52.684;9.758;2023-02-10T03:44:21;103151.16;;;6.46;60.33
5651;BME280;40241;52.684;9.758;2023-02-10T03:46:47;103141.34;;;6.49;60.23
5651;BME280;40241;52.684;9.758;2023-02-10T03:49:12;103183.91;;;6.50;60.40
5651;BME280;40241;52.684;9.758;2023-02-10T03:51:37;103129.22;;;6.50;60.38
5651;BME280;40241;52.684;9.758;2023-02-10T03:54:03;103132.72;;;6.54;60.02
5651;BME280;40241;52.684;9.758;2023-02-10T03:56:28;103142.09;;;6.53;60.04
5651;BME280;40241;52.684;9.758;2023-02-10T03:58:54;103128.44;;;6.53;60.38
5651;BME280;40241;52.684;9.758;2023-02-10T04:01:19;103131.53;;;6.55;60.11
5651;BME280;40241;52.684;9.758;2023-02-10T04:03:45;103132.28;;;6.55;60.40
5651;BME280;40241;52.684;9.758;2023-02-10T04:06:10;103133.44;;;6.58;60.57
5651;BME280;40241;52.684;9.758;2023-02-10T04:08:36;103132.66;;;6.61;60.40
5651;BME280;40241;52.684;9.758;2023-02-10T04:11:02;103133.44;;;6.61;60.40
5651;BME280;40241;52.684;9.758;2023-02-10T04:13:28;103135.03;;;6.59;60.57
5651;BME280;40241;52.684;9.758;2023-02-10T04:16:12;103129.56;;;6.59;61.08
5651;BME280;40241;52.684;9.758;2023-02-10T04:18:38;103128.38;;;6.56;60.43
5651;BME280;40241;52.684;9.758;2023-02-10T04:21:08;103129.19;;;6.53;60.52
5651;BME280;40241;52.684;9.758;2023-02-10T04:23:34;103161.63;;;6.55;60.48
5651;BME280;40241;52.684;9.758;2023-02-10T04:26:00;103142.47;;;6.55;60.74
5651;BME280;40241;52.684;9.758;2023-02-10T04:28:26;103142.47;;;6.55;60.43
5651;BME280;40241;52.684;9.758;2023-02-10T04:30:56;103152.69;;;6.51;60.63
5651;BME280;40241;52.684;9.758;2023-02-10T04:33:23;103141.31;;;6.52;60.64
5651;BME280;40241;52.684;9.758;2023-02-10T04:35:51;103142.13;;;6.49;60.85
5651;BME280;40241;52.684;9.758;2023-02-10T04:38:16;103125.31;;;6.51;60.66
5651;BME280;40241;52.684;9.758;2023-02-10T04:40:42;103155.78;;;6.49;60.51
5651;BME280;40241;52.684;9.758;2023-02-10T04:43:08;103128.50;;;6.46;61.02
5651;BME280;40241;52.684;9.758;2023-02-10T04:45:34;103146.81;;;6.49;60.85
5651;BME280;40241;52.684;9.758;2023-02-10T04:47:59;103131.22;;;6.46;60.84
5651;BME280;40241;52.684;9.758;2023-02-10T04:50:25;103144.09;;;6.45;60.78
5651;BME280;40241;52.684;9.758;2023-02-10T04:52:50;103130.47;;;6.42;60.47
5651;BME280;40241;52.684;9.758;2023-02-10T04:55:16;103142.22;;;6.39;61.24
5651;BME280;40241;52.684;9.758;2023-02-10T04:57:41;103130.94;;;6.33;61.02
5651;BME280;40241;52.684;9.758;2023-02-10T05:00:07;103125.84;;;6.32;60.83
5651;BME280;40241;52.684;9.758;2023-02-10T05:02:32;103128.22;;;6.30;60.96
5651;BME280;40241;52.684;9.758;2023-02-10T05:04:58;103134.06;;;6.32;61.11
5651;BME280;40241;52.684;9.758;2023-02-10T05:07:23;103140.28;;;6.36;61.13
5651;BME280;40241;52.684;9.758;2023-02-10T05:09:49;103151.56;;;6.38;61.05
5651;BME280;40241;52.684;9.758;2023-02-10T05:12:14;103143.81;;;6.33;60.97
5651;BME280;40241;52.684;9.758;2023-02-10T05:14:40;103139.91;;;6.34;61.35
5651;BME280;40241;52.684;9.758;2023-02-10T05:17:05;103146.56;;;6.33;61.25
5651;BME280;40241;52.684;9.758;2023-02-10T05:19:31;103151.19;;;6.36;60.89
5651;BME280;40241;52.684;9.758;2023-02-10T05:21:57;103140.28;;;6.36;61.38
5651;BME280;40241;52.684;9.758;2023-02-10T05:24:22;103139.50;;;6.35;61.14
5651;BME280;40241;52.684;9.758;2023-02-10T05:26:48;103155.91;;;6.35;61.11
5651;BME280;40241;52.684;9.758;2023-02-10T05:29:13;103167.22;;;6.37;61.05
5651;BME280;40241;52.684;9.758;2023-02-10T05:31:38;103138.38;;;6.29;61.00
5651;BME280;40241;52.684;9.758;2023-02-10T05:34:04;103167.66;;;6.32;61.28
5651;BME280;40241;52.684;9.758;2023-02-10T05:36:29;103149.25;;;6.36;61.34
5651;BME280;40241;52.684;9.758;2023-02-10T05:38:54;103154.31;;;6.38;61.25
5651;BME280;40241;52.684;9.758;2023-02-10T05:41:38;103161.38;;;6.35;61.03
5651;BME280;40241;52.684;9.758;2023-02-10T05:44:04;103161.38;;;6.35;61.20
5651;BME280;40241;52.684;9.758;2023-02-10T05:46:29;103172.31;;;6.35;61.19
5651;BME280;40241;52.684;9.758;2023-02-10T05:48:55;103183.63;;;6.34;61.35
5651;BME280;40241;52.684;9.758;2023-02-10T05:51:20;103175.44;;;6.34;61.29
5651;BME280;40241;52.684;9.758;2023-02-10T05:53:45;103173.16;;;6.29;61.34
5651;BME280;40241;52.684;9.758;2023-02-10T05:56:11;103171.94;;;6.30;61.27
5651;BME280;40241;52.684;9.758;2023-02-10T05:58:36;103175.47;;;6.30;61.47
5651;BME280;40241;52.684;9.758;2023-02-10T06:01:05;103169.25;;;6.26;61.48
5651;BME280;40241;52.684;9.758;2023-02-10T06:03:31;103189.97;;;6.24;61.67
5651;BME280;40241;52.684;9.758;2023-02-10T06:05:57;103200.94;;;6.20;61.19
5651;BME280;40241;52.684;9.758;2023-02-10T06:08:22;103184.88;;;6.26;61.62
5651;BME280;40241;52.684;9.758;2023-02-10T06:10:47;103191.53;;;6.21;61.14
5651;BME280;40241;52.684;9.758;2023-02-10T06:13:13;103202.09;;;6.19;61.31
5651;BME280;40241;52.684;9.758;2023-02-10T06:15:38;103202.88;;;6.20;61.27
5651;BME280;40241;52.684;9.758;2023-02-10T06:18:03;103193.56;;;6.14;61.29
5651;BME280;40241;52.684;9.758;2023-02-10T06:20:29;103202.91;;;6.13;61.64
5651;BME280;40241;52.684;9.758;2023-02-10T06:22:54;103212.69;;;6.10;61.39
5651;BME280;40241;52.684;9.758;2023-02-10T06:25:19;103232.63;;;6.03;61.21
5651;BME280;40241;52.684;9.758;2023-02-10T06:27:45;103209.59;;;6.01;61.21
5651;BME280;40241;52.684;9.758;2023-02-10T06:30:10;103206.16;;;5.93;61.38
5651;BME280;40241;52.684;9.758;2023-02-10T06:32:36;103235.00;;;5.94;61.44
5651;BME280;40241;52.684;9.758;2023-02-10T06:35:01;103217.06;;;5.93;61.63
5651;BME280;40241;52.684;9.758;2023-02-10T06:37:26;103235.81;;;5.91;61.64
5651;BME280;40241;52.684;9.758;2023-02-10T06:39:52;103231.91;;;5.92;61.43
5651;BME280;40241;52.684;9.758;2023-02-10T06:42:17;103230.72;;;5.90;61.29
5651;BME280;40241;52.684;9.758;2023-02-10T06:44:42;103221.41;;;5.84;61.41
5651;BME280;40241;52.684;9.758;2023-02-10T06:47:08;103248.72;;;5.80;61.50
5651;BME280;40241;52.684;9.758;2023-02-10T06:49:33;103221.78;;;5.75;61.63
5651;BME280;40241;52.684;9.758;2023-02-10T06:51:58;103218.69;;;5.73;61.59
5651;BME280;40241;52.684;9.758;2023-02-10T06:54:24;103219.47;;;5.70;61.45
5651;BME280;40241;52.684;9.758;2023-02-10T06:56:49;103231.59;;;5.62;61.74
5651;BME280;40241;52.684;9.758;2023-02-10T06:59:15;103226.13;;;5.62;61.82
5651;BME280;40241;52.684;9.758;2023-02-10T07:01:40;103231.22;;;5.57;61.76
5651;BME280;40241;52.684;9.758;2023-02-10T07:04:06;103237.06;;;5.55;61.93
5651;BME280;40241;52.684;9.758;2023-02-10T07:06:32;103236.28;;;5.51;61.91
5651;BME280;40241;52.684;9.758;2023-02-10T07:08:57;103227.34;;;5.54;61.89
5651;BME280;40241;52.684;9.758;2023-02-10T07:11:22;103235.91;;;5.53;61.72
5651;BME280;40241;52.684;9.758;2023-02-10T07:13:48;103234.75;;;5.50;61.69
5651;BME280;40241;52.684;9.758;2023-02-10T07:16:13;103222.28;;;5.42;61.87
5651;BME280;40241;52.684;9.758;2023-02-10T07:18:41;103227.72;;;5.42;61.68
5651;BME280;40241;52.684;9.758;2023-02-10T07:21:06;103258.53;;;5.46;61.85
5651;BME280;40241;52.684;9.758;2023-02-10T07:23:31;103231.22;;;5.46;61.80
5651;BME280;40241;52.684;9.758;2023-02-10T07:25:57;103231.25;;;5.50;61.63
5651;BME280;40241;52.684;9.758;2023-02-10T07:28:22;103240.97;;;5.51;61.53
5651;BME280;40241;52.684;9.758;2023-02-10T07:30:47;103252.69;;;5.51;61.86
5651;BME280;40241;52.684;9.758;2023-02-10T07:33:13;103242.16;;;5.57;61.65
5651;BME280;40241;52.684;9.758;2023-02-10T07:35:38;103247.97;;;5.62;61.79
5651;BME280;40241;52.684;9.758;2023-02-10T07:38:03;103256.97;;;5.63;61.86
5651;BME280;40241;52.684;9.758;2023-02-10T07:40:29;103257.69;;;5.70;61.89
5651;BME280;40241;52.684;9.758;2023-02-10T07:42:55;103255.34;;;5.76;61.68
5651;BME280;40241;52.684;9.758;2023-02-10T07:45:21;103253.78;;;5.75;62.08
5651;BME280;40241;52.684;9.758;2023-02-10T07:47:47;103255.34;;;5.79;61.87
5651;BME280;40241;52.684;9.758;2023-02-10T07:50:12;103261.22;;;5.85;62.02
5651;BME280;40241;52.684;9.758;2023-02-10T07:52:37;103271.72;;;5.86;62.03
5651;BME280;40241;52.684;9.758;2023-02-10T07:55:03;103257.66;;;5.88;61.82
5651;BME280;40241;52.684;9.758;2023-02-10T07:57:30;103276.81;;;5.91;61.97
5651;BME280;40241;52.684;9.758;2023-02-10T07:59:55;103258.44;;;5.92;62.00
5651;BME280;40241;52.684;9.758;2023-02-10T08:02:20;103279.88;;;5.97;62.23
5651;BME280;40241;52.684;9.758;2023-02-10T08:04:46;103259.97;;;5.96;62.11
5651;BME280;40241;52.684;9.758;2023-02-10T08:07:11;103261.16;;;5.99;61.94
5651;BME280;40241;52.684;9.758;2023-02-10T08:09:37;103261.53;;;6.04;62.09
5651;BME280;40241;52.684;9.758;2023-02-10T08:12:03;103259.94;;;6.03;61.99
5651;BME280;40241;52.684;9.758;2023-02-10T08:14:28;103273.63;;;6.03;62.04
5651;BME280;40241;52.684;9.758;2023-02-10T08:16:54;103263.88;;;6.02;62.18
5651;BME280;40241;52.684;9.758;2023-02-10T08:19:19;103267.38;;;6.03;62.50
5651;BME280;40241;52.684;9.758;2023-02-10T08:21:46;103280.66;;;6.04;61.89
5651;BME280;40241;52.684;9.758;2023-02-10T08:24:11;103275.53;;;6.10;62.20
5651;BME280;40241;52.684;9.758;2023-02-10T08:26:37;103297.41;;;6.10;62.22
5651;BME280;40241;52.684;9.758;2023-02-10T08:29:02;103277.91;;;6.08;62.09
5651;BME280;40241;52.684;9.758;2023-02-10T08:31:27;103274.38;;;6.11;62.06
5651;BME280;40241;52.684;9.758;2023-02-10T08:33:53;103274.78;;;6.06;62.23
5651;BME280;40241;52.684;9.758;2023-02-10T08:36:20;103275.91;;;6.12;62.05
5651;BME280;40241;52.684;9.758;2023-02-10T08:38:46;103273.19;;;6.12;62.13
5651;BME280;40241;52.684;9.758;2023-02-10T08:41:13;103273.56;;;6.14;62.27
5651;BME280;40241;52.684;9.758;2023-02-10T08:43:38;103277.09;;;6.15;62.28
5651;BME280;40241;52.684;9.758;2023-02-10T08:46:04;103266.56;;;6.13;62.44
5651;BME280;40241;52.684;9.758;2023-02-10T08:48:30;103276.31;;;6.18;62.37
5651;BME280;40241;52.684;9.758;2023-02-10T08:50:56;103275.94;;;6.16;62.39
5651;BME280;40241;52.684;9.758;2023-02-10T08:53:21;103274.31;;;6.18;62.58
5651;BME280;40241;52.684;9.758;2023-02-10T08:55:57;103279.41;;;6.20;62.52
5651;BME280;40241;52.684;9.758;2023-02-10T08:58:23;103276.31;;;6.18;62.62
5651;BME280;40241;52.684;9.758;2023-02-10T09:00:49;103284.47;;;6.21;62.66
5651;BME280;40241;52.684;9.758;2023-02-10T09:03:14;103284.84;;;6.23;63.01
5651;BME280;40241;52.684;9.758;2023-02-10T09:05:40;103282.47;;;6.32;62.63
5651;BME280;40241;52.684;9.758;2023-02-10T09:08:06;103272.66;;;6.38;62.73
5651;BME280;40241;52.684;9.758;2023-02-10T09:10:33;103283.16;;;6.50;62.73
5651;BME280;40241;52.684;9.758;2023-02-10T09:12:59;103286.63;;;6.58;62.68
5651;BME280;40241;52.684;9.758;2023-02-10T09:15:24;103292.81;;;6.69;62.28
5651;BME280;40241;52.684;9.758;2023-02-10T09:17:49;103298.28;;;6.72;62.51
5651;BME280;40241;52.684;9.758;2023-02-10T09:20:15;103286.50;;;6.79;62.30
5651;BME280;40241;52.684;9.758;2023-02-10T09:22:40;103311.50;;;6.81;62.54
5651;BME280;40241;52.684;9.758;2023-02-10T09:25:05;103303.28;;;6.81;62.29
5651;BME280;40241;52.684;9.758;2023-02-10T09:27:31;103307.97;;;6.80;62.21
5651;BME280;40241;52.684;9.758;2023-02-10T09:29:56;103287.25;;;6.83;62.27
5651;BME280;40241;52.684;9.758;2023-02-10T09:32:21;103296.19;;;6.87;62.46
5651;BME280;40241;52.684;9.758;2023-02-10T09:34:47;103290.31;;;6.92;62.36
5651;BME280;40241;52.684;9.758;2023-02-10T09:37:12;103291.44;;;6.98;62.35
5651;BME280;40241;52.684;9.758;2023-02-10T09:39:38;103285.88;;;7.09;62.45
5651;BME280;40241;52.684;9.758;2023-02-10T09:42:22;103293.56;;;7.21;62.33
5651;BME280;40241;52.684;9.758;2023-02-10T09:45:15;103288.81;;;7.28;62.51
5651;BME280;40241;52.684;9.758;2023-02-10T09:47:51;103288.31;;;7.40;62.29
5651;BME280;40241;52.684;9.758;2023-02-10T09:53:04;103297.19;;;7.51;62.10
5651;BME280;40241;52.684;9.758;2023-02-10T10:00:43;103295.75;;;7.81;61.79
5651;BME280;40241;52.684;9.758;2023-02-10T10:03:21;103298.41;;;7.88;61.90
5651;BME280;40241;52.684;9.758;2023-02-10T10:08:42;103291.88;;;8.08;61.75
5651;BME280;40241;52.684;9.758;2023-02-10T10:12:15;103298.22;;;8.02;61.70
5651;BME280;40241;52.684;9.758;2023-02-10T10:14:35;103307.59;;;8.04;61.81
5651;BME280;40241;52.684;9.758;2023-02-10T10:28:28;103305.00;;;8.24;61.79
5651;BME280;40241;52.684;9.758;2023-02-10T10:31:03;103311.22;;;8.32;61.32
5651;BME280;40241;52.684;9.758;2023-02-10T10:33:52;103305.31;;;8.33;61.08
5651;BME280;40241;52.684;9.758;2023-02-10T10:36:27;103310.44;;;8.31;61.38
5651;BME280;40241;52.684;9.758;2023-02-10T10:38:59;103301.47;;;8.27;61.12
5651;BME280;40241;52.684;9.758;2023-02-10T10:41:29;103307.75;;;8.24;61.36
5651;BME280;40241;52.684;9.758;2023-02-10T10:43:56;103312.44;;;8.23;61.34
5651;BME280;40241;52.684;9.758;2023-02-10T10:48:58;103296.72;;;8.31;61.43
5651;BME280;40241;52.684;9.758;2023-02-10T10:51:29;103294.34;;;8.33;61.52
5651;BME280;40241;52.684;9.758;2023-02-10T10:53:57;103297.03;;;8.37;61.29
5651;BME280;40241;52.684;9.758;2023-02-10T10:59:18;103294.19;;;8.44;61.22
5651;BME280;40241;52.684;9.758;2023-02-10T11:01:48;103282.03;;;8.45;61.23
5651;BME280;40241;52.684;9.758;2023-02-10T11:06:40;103283.03;;;8.58;61.28
5651;BME280;40241;52.684;9.758;2023-02-10T11:09:37;103280.94;;;8.65;61.33
5651;BME280;40241;52.684;9.758;2023-02-10T11:14:38;103282.81;;;8.72;61.04
5651;BME280;40241;52.684;9.758;2023-02-10T11:19:56;103288.00;;;8.93;61.19
5651;BME280;40241;52.684;9.758;2023-02-10T11:22:22;103275.69;;;9.01;60.83
5651;BME280;40241;52.684;9.758;2023-02-10T11:24:53;103273.91;;;9.14;60.90
5651;BME280;40241;52.684;9.758;2023-02-10T11:27:19;103287.03;;;9.26;60.68
5651;BME280;40241;52.684;9.758;2023-02-10T11:29:48;103270.72;;;9.39;60.62
5651;BME280;40241;52.684;9.758;2023-02-10T11:32:28;103273.31;;;9.46;59.50
5651;BME280;40241;52.684;9.758;2023-02-10T11:34:59;103263.53;;;9.45;60.23
5651;BME280;40241;52.684;9.758;2023-02-10T11:37:30;103265.38;;;9.51;60.01
5651;BME280;40241;52.684;9.758;2023-02-10T11:39:59;103261.03;;;9.54;60.46
5651;BME280;40241;52.684;9.758;2023-02-10T11:42:33;103265.75;;;9.73;60.26
5651;BME280;40241;52.684;9.758;2023-02-10T11:47:30;103252.09;;;9.89;60.02
5651;BME280;40241;52.684;9.758;2023-02-10T11:49:56;103255.56;;;10.09;59.95
5651;BME280;40241;52.684;9.758;2023-02-10T11:52:23;103254.81;;;10.28;59.55
5651;BME280;40241;52.684;9.758;2023-02-10T11:54:49;103259.75;;;10.53;59.69
5651;BME280;40241;52.684;9.758;2023-02-10T12:00:22;103259.50;;;10.80;58.27
5651;BME280;40241;52.684;9.758;2023-02-10T12:05:55;103262.94;;;11.16;57.13
5651;BME280;40241;52.684;9.758;2023-02-10T12:11:11;103245.25;;;11.29;58.34
5651;BME280;40241;52.684;9.758;2023-02-10T12:19:02;103245.09;;;11.49;57.52
5651;BME280;40241;52.684;9.758;2023-02-10T12:27:14;103236.22;;;11.86;57.13
5651;BME280;40241;52.684;9.758;2023-02-10T12:32:48;103213.72;;;11.88;55.82
5651;BME280;40241;52.684;9.758;2023-02-10T12:43:53;103216.09;;;11.73;55.02
5651;BME280;40241;52.684;9.758;2023-02-10T12:49:11;103201.22;;;11.42;56.96
5651;BME280;40241;52.684;9.758;2023-02-10T12:51:49;103203.81;;;11.33;56.59
5651;BME280;40241;52.684;9.758;2023-02-10T12:54:24;103200.91;;;11.24;57.06
5651;BME280;40241;52.684;9.758;2023-02-10T12:56:59;103191.56;;;11.05;56.73
5651;BME280;40241;52.684;9.758;2023-02-10T13:02:36;103185.75;;;10.87;56.95
5651;BME280;40241;52.684;9.758;2023-02-10T13:05:08;103192.47;;;10.86;57.82
5651;BME280;40241;52.684;9.758;2023-02-10T13:08:01;103190.94;;;11.14;56.57
5651;BME280;40241;52.684;9.758;2023-02-10T13:10:46;103183.78;;;11.45;57.18
5651;BME280;40241;52.684;9.758;2023-02-10T13:13:25;103184.91;;;11.76;56.30
5651;BME280;40241;52.684;9.758;2023-02-10T13:18:42;103172.00;;;11.98;56.01
5651;BME280;40241;52.684;9.758;2023-02-10T13:21:17;103183.25;;;12.04;55.49
5651;BME280;40241;52.684;9.758;2023-02-10T13:23:48;103177.84;;;12.00;56.29
5651;BME280;40241;52.684;9.758;2023-02-10T13:34:21;103157.88;;;12.09;55.85
5651;BME280;40241;52.684;9.758;2023-02-10T13:36:57;103162.94;;;12.23;55.41
5651;BME280;40241;52.684;9.758;2023-02-10T13:39:25;103156.78;;;12.32;55.60
5651;BME280;40241;52.684;9.758;2023-02-10T13:42:07;103168.91;;;12.34;54.77
5651;BME280;40241;52.684;9.758;2023-02-10T13:44:34;103153.03;;;12.38;55.58
5651;BME280;40241;52.684;9.758;2023-02-10T13:50:22;103166.38;;;12.40;54.78
5651;BME280;40241;52.684;9.758;2023-02-10T13:58:13;103155.47;;;11.86;53.46
5651;BME280;40241;52.684;9.758;2023-02-10T14:00:47;103145.63;;;11.85;55.74
5651;BME280;40241;52.684;9.758;2023-02-10T14:13:55;103130.94;;;11.75;55.26
5651;BME280;40241;52.684;9.758;2023-02-10T14:19:00;103133.66;;;11.63;54.98
5651;BME280;40241;52.684;9.758;2023-02-10T14:21:38;103123.59;;;11.56;55.00
5651;BME280;40241;52.684;9.758;2023-02-10T14:24:12;103126.28;;;11.60;55.19
5651;BME280;40241;52.684;9.758;2023-02-10T14:26:42;103124.25;;;11.60;55.57
5651;BME280;40241;52.684;9.758;2023-02-10T14:29:13;103114.13;;;11.57;55.30
5651;BME280;40241;52.684;9.758;2023-02-10T14:31:40;103107.59;;;11.51;55.39
5651;BME280;40241;52.684;9.758;2023-02-10T14:34:28;103109.81;;;11.44;54.26
5651;BME280;40241;52.684;9.758;2023-02-10T14:36:59;103119.72;;;11.41;55.46
5651;BME280;40241;52.684;9.758;2023-02-10T14:39:27;103119.38;;;11.39;55.80
5651;BME280;40241;52.684;9.758;2023-02-10T14:41:54;103112.41;;;11.35;55.69
5651;BME280;40241;52.684;9.758;2023-02-10T14:44:30;103127.50;;;11.30;55.33
5651;BME280;40241;52.684;9.758;2023-02-10T14:46:58;103117.03;;;11.25;55.72
5651;BME280;40241;52.684;9.758;2023-02-10T14:49:23;103105.19;;;11.12;55.51
5651;BME280;40241;52.684;9.758;2023-02-10T14:51:49;103111.44;;;11.00;55.76
5651;BME280;40241;52.684;9.758;2023-02-10T14:54:20;103116.00;;;10.90;55.76
5651;BME280;40241;52.684;9.758;2023-02-10T14:56:57;103109.16;;;10.82;55.67
5651;BME280;40241;52.684;9.758;2023-02-10T14:59:32;103105.22;;;10.83;55.55
5651;BME280;40241;52.684;9.758;2023-02-10T15:01:59;103101.34;;;10.81;55.93
5651;BME280;40241;52.684;9.758;2023-02-10T15:04:26;103105.91;;;10.71;55.91
5651;BME280;40241;52.684;9.758;2023-02-10T15:06:55;103118.16;;;10.70;55.96
5651;BME280;40241;52.684;9.758;2023-02-10T15:09:29;103105.34;;;10.64;55.96
5651;BME280;40241;52.684;9.758;2023-02-10T15:12:01;103107.03;;;10.57;56.11
5651;BME280;40241;52.684;9.758;2023-02-10T15:17:06;103087.63;;;10.48;56.24
5651;BME280;40241;52.684;9.758;2023-02-10T15:19:33;103097.59;;;10.42;56.16
5651;BME280;40241;52.684;9.758;2023-02-10T15:21:59;103090.22;;;10.39;56.29
5651;BME280;40241;52.684;9.758;2023-02-10T15:24:30;103075.75;;;10.35;55.99
5651;BME280;40241;52.684;9.758;2023-02-10T15:27:16;103076.38;;;10.27;55.61
5651;BME280;40241;52.684;9.758;2023-02-10T15:29:42;103071.91;;;10.17;56.41
5651;BME280;40241;52.684;9.758;2023-02-10T15:32:19;103061.41;;;10.12;56.00
5651;BME280;40241;52.684;9.758;2023-02-10T15:34:45;103066.56;;;10.10;56.45